createdAt,value
2023-03-29T00:01:34.884Z,-3.00
2023-03-29T00:04:06.466Z,-2.99
2023-03-29T00:06:35.161Z,-3.06
2023-03-29T00:09:06.055Z,-3.02
2023-03-29T00:11:34.371Z,-3.00
2023-03-29T00:14:02.659Z,-2.99
2023-03-29T00:16:31.401Z,-2.99
2023-03-29T00:18:59.936Z,-2.97
2023-03-29T00:21:28.197Z,-3.01
2023-03-29T00:23:57.917Z,-3.05
2023-03-29T00:26:26.827Z,-3.07
2023-03-29T00:28:56.106Z,-3.12
2023-03-29T00:31:24.449Z,-3.18
2023-03-29T00:33:53.241Z,-3.24
2023-03-29T00:36:22.480Z,-3.25
2023-03-29T00:38:50.864Z,-3.29
2023-03-29T00:41:19.118Z,-3.32
2023-03-29T00:44:02.613Z,-3.40
2023-03-29T00:46:31.654Z,-3.36
2023-03-29T00:49:09.823Z,-3.34
2023-03-29T00:51:41.592Z,-3.42
2023-03-29T00:54:15.175Z,-3.43
2023-03-29T00:56:47.880Z,-3.48
2023-03-29T00:59:21.772Z,-3.49
2023-03-29T01:02:07.535Z,-3.51
2023-03-29T01:04:48.225Z,-3.54
2023-03-29T01:07:24.899Z,-3.60
2023-03-29T01:10:01.747Z,-3.61
2023-03-29T01:12:36.193Z,-3.69
2023-03-29T01:15:19.609Z,-3.68
2023-03-29T01:17:51.085Z,-3.75
2023-03-29T01:20:31.082Z,-3.74
2023-03-29T01:23:18.243Z,-3.71
2023-03-29T01:26:25.161Z,-3.70
2023-03-29T01:29:01.116Z,-3.69
2023-03-29T01:31:36.595Z,-3.78
2023-03-29T01:34:21.081Z,-3.86
2023-03-29T01:37:04.738Z,-3.84
2023-03-29T01:39:35.172Z,-3.84
2023-03-29T01:42:14.800Z,-3.90
2023-03-29T01:44:47.983Z,-3.87
2023-03-29T01:47:22.554Z,-3.90
2023-03-29T01:50:06.662Z,-3.85
2023-03-29T01:52:51.141Z,-3.85
2023-03-29T01:55:24.144Z,-3.83
2023-03-29T01:57:54.240Z,-3.86
2023-03-29T02:00:27.813Z,-3.86
2023-03-29T02:03:03.446Z,-3.85
2023-03-29T02:05:32.804Z,-3.93
2023-03-29T02:08:05.427Z,-3.95
2023-03-29T02:10:35.281Z,-3.97
2023-03-29T02:13:06.127Z,-3.93
2023-03-29T02:15:34.882Z,-3.94
2023-03-29T02:18:06.904Z,-3.94
2023-03-29T02:20:47.646Z,-3.91
2023-03-29T02:23:24.253Z,-3.91
2023-03-29T02:25:57.197Z,-3.89
2023-03-29T02:28:28.340Z,-3.92
2023-03-29T02:31:09.947Z,-3.91
2023-03-29T02:33:43.579Z,-3.84
2023-03-29T02:36:20.998Z,-3.82
2023-03-29T02:38:49.340Z,-3.79
2023-03-29T02:41:18.127Z,-3.78
2023-03-29T02:43:48.575Z,-3.79
2023-03-29T02:46:18.887Z,-3.84
2023-03-29T02:48:52.055Z,-3.85
2023-03-29T02:51:22.446Z,-3.85
2023-03-29T02:54:05.634Z,-3.88
2023-03-29T02:56:44.911Z,-3.97
2023-03-29T02:59:14.491Z,-4.00
2023-03-29T03:01:45.783Z,-4.00
2023-03-29T03:04:15.725Z,-4.12
2023-03-29T03:06:45.154Z,-4.06
2023-03-29T03:09:14.023Z,-4.05
2023-03-29T03:11:43.860Z,-4.04
2023-03-29T03:14:12.645Z,-4.07
2023-03-29T03:16:41.334Z,-4.14
2023-03-29T03:19:10.625Z,-4.14
2023-03-29T03:21:39.408Z,-4.18
2023-03-29T03:24:07.991Z,-4.23
2023-03-29T03:26:38.325Z,-4.23
2023-03-29T03:29:06.881Z,-4.15
2023-03-29T03:32:04.867Z,-4.22
2023-03-29T03:34:52.403Z,-4.21
2023-03-29T03:37:23.769Z,-4.24
2023-03-29T03:39:52.118Z,-4.27
2023-03-29T03:42:20.634Z,-4.23
2023-03-29T03:44:49.817Z,-4.19
2023-03-29T03:47:44.195Z,-4.23
2023-03-29T03:50:30.507Z,-4.32
2023-03-29T03:52:58.795Z,-4.38
2023-03-29T03:55:30.245Z,-4.40
2023-03-29T03:58:16.138Z,-4.44
2023-03-29T04:00:47.656Z,-4.50
2023-03-29T04:03:34.893Z,-4.54
2023-03-29T04:06:04.658Z,-4.61
2023-03-29T04:08:48.215Z,-4.65
2023-03-29T04:11:26.746Z,-4.63
2023-03-29T04:13:55.259Z,-4.67
2023-03-29T04:16:31.629Z,-4.64
2023-03-29T04:19:08.723Z,-4.64
2023-03-29T04:21:37.416Z,-4.65
2023-03-29T04:24:06.394Z,-4.65
2023-03-29T04:26:36.251Z,-4.69
2023-03-29T04:29:12.093Z,-4.70
2023-03-29T04:31:45.756Z,-4.72
2023-03-29T04:34:29.011Z,-4.76
2023-03-29T04:36:59.128Z,-4.78
2023-03-29T04:39:34.124Z,-4.80
2023-03-29T04:42:05.630Z,-4.78
2023-03-29T04:44:35.231Z,-4.75
2023-03-29T04:47:05.452Z,-4.67
2023-03-29T04:49:56.359Z,-4.57
2023-03-29T04:52:33.524Z,-4.50
2023-03-29T04:55:03.980Z,-4.41
2023-03-29T04:58:01.448Z,-4.37
2023-03-29T05:00:38.097Z,-4.36
2023-03-29T05:03:07.808Z,-4.32
2023-03-29T05:05:39.304Z,-4.28
2023-03-29T05:08:09.708Z,-4.23
2023-03-29T05:11:13.925Z,-4.22
2023-03-29T05:13:43.335Z,-4.25
2023-03-29T05:16:11.953Z,-4.19
2023-03-29T05:18:40.878Z,-4.18
2023-03-29T05:21:09.811Z,-4.16
2023-03-29T05:23:38.530Z,-4.13
2023-03-29T05:26:18.861Z,-4.17
2023-03-29T05:28:51.135Z,-4.17
2023-03-29T05:31:20.350Z,-4.09
2023-03-29T05:33:52.113Z,-4.05
2023-03-29T05:36:20.824Z,-4.07
2023-03-29T05:38:52.438Z,-4.14
2023-03-29T05:41:23.063Z,-4.13
2023-03-29T05:44:10.186Z,-4.15
2023-03-29T05:46:39.462Z,-4.03
2023-03-29T05:49:07.571Z,-4.02
2023-03-29T05:51:59.676Z,-4.02
2023-03-29T05:54:28.643Z,-3.96
2023-03-29T05:56:57.007Z,-4.01
2023-03-29T05:59:28.405Z,-3.95
2023-03-29T06:01:57.152Z,-3.93
2023-03-29T06:04:30.987Z,-3.93
2023-03-29T06:07:18.459Z,-3.85
2023-03-29T06:09:59.368Z,-3.82
2023-03-29T06:12:30.164Z,-3.72
2023-03-29T06:15:05.111Z,-3.73
2023-03-29T06:17:42.732Z,-3.69
2023-03-29T06:20:12.368Z,-3.61
2023-03-29T06:22:43.143Z,-3.55
2023-03-29T06:25:14.232Z,-3.47
2023-03-29T06:27:46.971Z,-3.44
2023-03-29T06:30:17.220Z,-3.32
2023-03-29T06:32:50.817Z,-3.31
2023-03-29T06:35:48.051Z,-3.21
2023-03-29T06:38:21.053Z,-3.00
2023-03-29T06:41:08.548Z,-2.29
2023-03-29T06:43:59.837Z,-2.28
2023-03-29T06:46:34.193Z,-2.41
2023-03-29T06:49:07.315Z,-2.61
2023-03-29T06:51:43.753Z,-2.43
2023-03-29T06:54:12.276Z,-1.99
2023-03-29T06:56:47.534Z,-1.93
2023-03-29T06:59:18.205Z,-2.04
2023-03-29T07:01:59.990Z,-1.90
2023-03-29T07:04:42.590Z,-1.96
2023-03-29T07:07:22.203Z,-1.66
2023-03-29T07:09:55.723Z,-1.38
2023-03-29T07:12:44.857Z,-1.62
2023-03-29T07:15:14.163Z,-1.60
2023-03-29T07:18:12.840Z,-1.65
2023-03-29T07:20:42.679Z,-2.00
2023-03-29T07:23:11.853Z,-1.89
2023-03-29T07:25:41.165Z,-1.74
2023-03-29T07:28:09.625Z,-1.61
2023-03-29T07:30:39.096Z,-1.40
2023-03-29T07:33:22.440Z,-1.18
2023-03-29T07:35:57.610Z,-1.11
2023-03-29T07:38:27.443Z,-1.16
2023-03-29T07:41:05.105Z,-1.03
2023-03-29T07:43:48.063Z,-0.92
2023-03-29T07:46:19.845Z,-0.97
2023-03-29T07:48:48.244Z,-0.93
2023-03-29T07:51:17.404Z,-1.10
2023-03-29T07:53:57.455Z,-1.36
2023-03-29T07:56:52.093Z,-1.29
2023-03-29T07:59:30.290Z,-1.31
2023-03-29T08:02:21.684Z,-1.26
2023-03-29T08:04:57.496Z,-1.38
2023-03-29T08:07:31.680Z,-1.35
2023-03-29T08:10:09.357Z,-1.53
2023-03-29T08:12:52.672Z,-1.38
2023-03-29T08:15:27.111Z,-1.16
2023-03-29T08:17:55.942Z,-0.99
2023-03-29T08:20:25.931Z,-1.06
2023-03-29T08:22:56.463Z,-1.14
2023-03-29T08:25:52.257Z,-0.92
2023-03-29T08:28:20.660Z,-0.75
2023-03-29T08:30:52.996Z,-0.49
2023-03-29T08:33:21.749Z,-0.52
2023-03-29T08:35:57.904Z,-0.55
2023-03-29T08:38:30.471Z,-0.26
2023-03-29T08:40:59.263Z,-0.27
2023-03-29T08:43:59.857Z,-0.18
2023-03-29T08:47:39.065Z,-0.08
2023-03-29T08:50:10.280Z,0.10
2023-03-29T08:52:53.116Z,0.15
2023-03-29T08:55:53.235Z,0.41
2023-03-29T08:58:42.342Z,0.71
2023-03-29T09:01:11.840Z,0.98
2023-03-29T09:03:55.805Z,1.31
2023-03-29T09:06:33.920Z,1.84
2023-03-29T09:09:19.480Z,2.36
2023-03-29T09:11:51.617Z,2.13
2023-03-29T09:14:31.077Z,2.30
2023-03-29T09:17:10.135Z,2.28
2023-03-29T09:19:47.329Z,2.32
2023-03-29T09:22:42.179Z,2.51
2023-03-29T09:25:25.027Z,3.01
2023-03-29T09:28:18.562Z,3.10
2023-03-29T09:31:06.439Z,3.22
2023-03-29T09:33:46.958Z,3.16
2023-03-29T09:36:30.227Z,3.01
2023-03-29T09:38:59.091Z,3.09
2023-03-29T09:41:36.484Z,2.59
2023-03-29T09:44:31.360Z,2.51
2023-03-29T09:47:18.698Z,2.54
2023-03-29T09:49:52.100Z,1.97
2023-03-29T09:52:21.298Z,1.95
2023-03-29T09:55:01.371Z,1.78
2023-03-29T09:57:44.076Z,1.75
2023-03-29T10:00:14.992Z,1.49
2023-03-29T10:02:51.654Z,1.62
2023-03-29T10:05:20.651Z,1.73
2023-03-29T10:07:52.998Z,1.83
2023-03-29T10:10:21.233Z,1.85
2023-03-29T10:12:57.511Z,1.53
2023-03-29T10:15:30.419Z,1.51
2023-03-29T10:18:03.278Z,1.47
2023-03-29T10:20:36.571Z,1.45
2023-03-29T10:23:08.180Z,1.34
2023-03-29T10:25:43.038Z,1.41
2023-03-29T10:28:21.264Z,1.44
2023-03-29T10:30:56.427Z,1.41
2023-03-29T10:33:31.239Z,1.64
2023-03-29T10:36:02.617Z,1.51
2023-03-29T10:38:31.144Z,1.39
2023-03-29T10:41:07.084Z,1.60
2023-03-29T10:43:38.690Z,1.63
2023-03-29T10:46:17.710Z,1.82
2023-03-29T10:48:49.161Z,1.93
2023-03-29T10:51:19.726Z,1.79
2023-03-29T10:53:48.936Z,1.79
2023-03-29T10:56:17.422Z,1.90
2023-03-29T10:58:58.475Z,1.94
2023-03-29T11:01:46.013Z,1.79
2023-03-29T11:04:29.842Z,1.84
2023-03-29T11:07:00.860Z,1.71
2023-03-29T11:09:35.549Z,1.95
2023-03-29T11:12:38.910Z,2.06
2023-03-29T11:15:41.705Z,2.03
2023-03-29T11:18:36.394Z,1.74
2023-03-29T11:21:39.882Z,2.05
2023-03-29T11:24:21.020Z,1.94
2023-03-29T11:27:08.097Z,1.96
2023-03-29T11:29:53.799Z,2.06
2023-03-29T11:32:34.395Z,2.02
2023-03-29T11:35:47.600Z,1.84
2023-03-29T11:38:50.187Z,2.05
2023-03-29T11:41:23.472Z,2.08
2023-03-29T11:44:04.954Z,2.11
2023-03-29T11:46:41.905Z,2.26
2023-03-29T11:49:27.624Z,2.31
2023-03-29T11:52:38.513Z,2.24
2023-03-29T11:55:16.372Z,2.05
2023-03-29T11:57:58.964Z,2.16
2023-03-29T12:00:58.041Z,2.22
2023-03-29T12:03:29.436Z,2.41
2023-03-29T12:06:05.029Z,2.40
2023-03-29T12:08:38.930Z,2.42
2023-03-29T12:11:15.083Z,2.35
2023-03-29T12:13:52.800Z,2.49
2023-03-29T12:16:33.496Z,2.18
2023-03-29T12:19:14.953Z,1.99
2023-03-29T12:21:46.087Z,1.90
2023-03-29T12:24:21.560Z,2.02
2023-03-29T12:26:57.909Z,2.05
2023-03-29T12:29:53.526Z,1.93
2023-03-29T12:32:37.635Z,1.78
2023-03-29T12:35:44.660Z,1.62
2023-03-29T12:38:33.322Z,1.77
2023-03-29T12:41:23.730Z,1.87
2023-03-29T12:44:16.910Z,2.02
2023-03-29T12:47:21.719Z,2.02
2023-03-29T12:49:58.707Z,1.90
2023-03-29T12:52:37.337Z,1.86
2023-03-29T12:55:23.693Z,1.82
2023-03-29T12:58:03.279Z,1.92
2023-03-29T13:00:33.700Z,2.01
2023-03-29T13:03:06.500Z,2.06
2023-03-29T13:05:36.925Z,2.06
2023-03-29T13:08:33.575Z,2.03
2023-03-29T13:11:02.546Z,2.06
2023-03-29T13:13:36.398Z,2.17
2023-03-29T13:16:14.194Z,2.32
2023-03-29T13:18:45.558Z,2.40
2023-03-29T13:21:16.860Z,2.32
2023-03-29T13:24:19.644Z,2.20
2023-03-29T13:26:50.807Z,2.11
2023-03-29T13:29:38.179Z,2.11
2023-03-29T13:32:38.586Z,2.22
2023-03-29T13:35:37.873Z,2.36
2023-03-29T13:38:28.845Z,2.43
2023-03-29T13:41:23.478Z,2.40
2023-03-29T13:43:54.519Z,2.42
2023-03-29T13:46:24.159Z,2.26
2023-03-29T13:49:00.153Z,2.40
2023-03-29T13:51:32.365Z,2.37
2023-03-29T13:54:15.379Z,2.32
2023-03-29T13:57:11.471Z,2.42
2023-03-29T13:59:59.619Z,2.57
2023-03-29T14:02:41.052Z,2.43
2023-03-29T14:05:16.605Z,2.34
2023-03-29T14:07:50.470Z,2.47
2023-03-29T14:10:27.510Z,2.43
2023-03-29T14:12:56.837Z,2.52
2023-03-29T14:15:36.520Z,2.49
2023-03-29T14:18:04.936Z,2.41
2023-03-29T14:20:33.735Z,2.52
2023-03-29T14:23:01.908Z,2.46
2023-03-29T14:25:30.679Z,2.51
2023-03-29T14:27:59.000Z,2.47
2023-03-29T14:30:29.430Z,2.52
2023-03-29T14:32:57.799Z,2.44
2023-03-29T14:35:32.989Z,2.40
2023-03-29T14:38:02.545Z,2.40
2023-03-29T14:40:32.707Z,2.54
2023-03-29T14:43:06.960Z,2.52
2023-03-29T14:45:36.139Z,2.48
2023-03-29T14:48:05.040Z,2.54
2023-03-29T14:50:33.832Z,2.63
2023-03-29T14:53:03.335Z,2.70
2023-03-29T14:55:32.457Z,2.58
2023-03-29T14:58:00.719Z,2.64
2023-03-29T15:00:40.228Z,2.56
2023-03-29T15:03:14.484Z,2.46
2023-03-29T15:05:48.920Z,2.27
2023-03-29T15:08:23.751Z,2.20
2023-03-29T15:10:52.304Z,2.13
2023-03-29T15:13:24.842Z,2.14
2023-03-29T15:15:57.856Z,2.14
2023-03-29T15:18:41.548Z,2.14
2023-03-29T15:21:13.782Z,2.19
2023-03-29T15:23:53.394Z,2.20
2023-03-29T15:26:32.155Z,2.15
2023-03-29T15:29:17.331Z,2.21
2023-03-29T15:31:55.461Z,2.18
2023-03-29T15:34:29.609Z,2.04
2023-03-29T15:36:58.873Z,2.01
2023-03-29T15:39:29.462Z,2.08
2023-03-29T15:41:58.520Z,2.07
2023-03-29T15:44:29.449Z,2.09
2023-03-29T15:46:58.586Z,2.06
2023-03-29T15:49:28.021Z,2.00
2023-03-29T15:51:56.866Z,1.93
2023-03-29T15:54:25.195Z,1.86
2023-03-29T15:57:01.813Z,1.81
2023-03-29T15:59:34.961Z,1.79
2023-03-29T16:02:04.491Z,1.77
2023-03-29T16:04:32.743Z,1.79
2023-03-29T16:07:01.374Z,1.78
2023-03-29T16:09:29.607Z,1.66
2023-03-29T16:12:00.653Z,1.64
2023-03-29T16:14:31.640Z,1.56
2023-03-29T16:17:01.611Z,1.50
2023-03-29T16:19:31.731Z,1.47
2023-03-29T16:22:02.465Z,1.38
2023-03-29T16:24:32.593Z,1.39
2023-03-29T16:27:02.790Z,1.31
2023-03-29T16:29:31.323Z,1.25
2023-03-29T16:32:01.015Z,1.13
2023-03-29T16:34:30.157Z,1.03
2023-03-29T16:36:58.280Z,0.98
2023-03-29T16:39:27.238Z,0.89
2023-03-29T16:41:55.450Z,0.82
2023-03-29T16:44:25.780Z,0.77
2023-03-29T16:46:54.479Z,0.66
2023-03-29T16:49:24.320Z,0.60
2023-03-29T16:51:52.604Z,0.54
2023-03-29T16:54:21.277Z,0.47
2023-03-29T16:56:49.443Z,0.42
2023-03-29T16:59:17.697Z,0.36
2023-03-29T17:01:46.585Z,0.32
2023-03-29T17:04:15.116Z,0.26
2023-03-29T17:06:43.279Z,0.19
2023-03-29T17:09:11.548Z,0.17
2023-03-29T17:11:39.694Z,0.14
2023-03-29T17:14:08.090Z,0.11
2023-03-29T17:16:36.504Z,0.08
2023-03-29T17:19:04.743Z,0.02
2023-03-29T17:21:33.325Z,0.01
2023-03-29T17:24:03.542Z,0.01
2023-03-29T17:26:31.728Z,0.01
2023-03-29T17:29:00.051Z,-0.00
2023-03-29T17:31:28.300Z,-0.05
2023-03-29T17:33:56.867Z,-0.07
2023-03-29T17:36:25.585Z,-0.10
2023-03-29T17:38:54.798Z,-0.11
2023-03-29T17:41:23.240Z,-0.11
2023-03-29T17:43:52.155Z,-0.12
2023-03-29T17:46:23.255Z,-0.14
2023-03-29T17:48:51.906Z,-0.16
2023-03-29T17:51:21.244Z,-0.17
2023-03-29T17:53:51.676Z,-0.17
2023-03-29T17:56:21.851Z,-0.18
2023-03-29T17:58:51.224Z,-0.21
2023-03-29T18:01:23.046Z,-0.19
2023-03-29T18:03:51.918Z,-0.18
2023-03-29T18:06:21.286Z,-0.17
2023-03-29T18:08:49.771Z,-0.16
2023-03-29T18:11:22.980Z,-0.19
2023-03-29T18:13:53.918Z,-0.24
2023-03-29T18:16:24.256Z,-0.24
2023-03-29T18:18:53.024Z,-0.25
2023-03-29T18:21:22.320Z,-0.27
2023-03-29T18:23:53.816Z,-0.30
2023-03-29T18:26:23.690Z,-0.31
2023-03-29T18:28:52.683Z,-0.32
2023-03-29T18:31:21.553Z,-0.35
2023-03-29T18:33:49.868Z,-0.36
2023-03-29T18:36:19.294Z,-0.36
2023-03-29T18:38:47.862Z,-0.36
2023-03-29T18:41:16.331Z,-0.38
2023-03-29T18:43:45.201Z,-0.37
2023-03-29T18:46:13.858Z,-0.43
2023-03-29T18:48:42.478Z,-0.52
2023-03-29T18:51:15.284Z,-0.61
2023-03-29T18:53:44.524Z,-0.58
2023-03-29T18:56:12.778Z,-0.55
2023-03-29T18:58:41.107Z,-0.54
2023-03-29T19:01:11.190Z,-0.49
2023-03-29T19:03:40.440Z,-0.55
2023-03-29T19:06:09.863Z,-0.57
2023-03-29T19:08:40.113Z,-0.63
2023-03-29T19:11:10.552Z,-0.64
2023-03-29T19:13:38.824Z,-0.66
2023-03-29T19:16:07.656Z,-0.69
2023-03-29T19:18:37.011Z,-0.73
2023-03-29T19:21:05.305Z,-0.81
2023-03-29T19:23:33.918Z,-0.86
2023-03-29T19:26:05.519Z,-0.87
2023-03-29T19:28:34.703Z,-0.88
2023-03-29T19:31:04.341Z,-0.90
2023-03-29T19:33:33.225Z,-0.92
2023-03-29T19:36:04.473Z,-0.94
2023-03-29T19:38:32.909Z,-0.96
2023-03-29T19:41:01.231Z,-0.97
2023-03-29T19:43:29.532Z,-1.00
2023-03-29T19:46:08.034Z,-1.02
2023-03-29T19:48:37.983Z,-1.06
2023-03-29T19:51:06.866Z,-1.16
2023-03-29T19:53:38.416Z,-1.22
2023-03-29T19:56:11.097Z,-1.27
2023-03-29T19:58:39.544Z,-1.31
2023-03-29T20:01:08.042Z,-1.35
2023-03-29T20:03:36.433Z,-1.43
2023-03-29T20:06:05.047Z,-1.47
2023-03-29T20:08:33.576Z,-1.51
2023-03-29T20:11:04.214Z,-1.57
2023-03-29T20:13:38.901Z,-1.60
2023-03-29T20:16:10.866Z,-1.70
2023-03-29T20:18:39.209Z,-1.75
2023-03-29T20:21:08.875Z,-1.71
2023-03-29T20:23:37.794Z,-1.71
2023-03-29T20:26:07.617Z,-1.74
2023-03-29T20:28:37.896Z,-1.77
2023-03-29T20:31:10.834Z,-1.74
2023-03-29T20:33:39.912Z,-1.79
2023-03-29T20:36:11.457Z,-1.83
2023-03-29T20:38:39.851Z,-1.84
2023-03-29T20:41:09.574Z,-1.82
2023-03-29T20:43:38.044Z,-1.80
2023-03-29T20:46:14.816Z,-1.86
2023-03-29T20:48:46.185Z,-1.97
2023-03-29T20:51:14.784Z,-1.95
2023-03-29T20:53:43.046Z,-1.90
2023-03-29T20:56:13.371Z,-1.91
2023-03-29T20:58:42.358Z,-1.93
2023-03-29T21:01:14.345Z,-1.97
2023-03-29T21:03:42.883Z,-1.96
2023-03-29T21:06:14.265Z,-2.03
2023-03-29T21:08:42.844Z,-2.06
2023-03-29T21:11:13.251Z,-2.04
2023-03-29T21:13:42.379Z,-1.94
2023-03-29T21:16:11.540Z,-1.96
2023-03-29T21:18:40.512Z,-1.98
2023-03-29T21:21:10.999Z,-2.02
2023-03-29T21:23:39.916Z,-2.07
2023-03-29T21:26:09.443Z,-2.11
2023-03-29T21:28:37.830Z,-2.12
2023-03-29T21:31:07.480Z,-2.17
2023-03-29T21:33:36.383Z,-2.17
2023-03-29T21:36:05.724Z,-2.15
2023-03-29T21:38:34.475Z,-2.13
2023-03-29T21:41:03.633Z,-2.19
2023-03-29T21:43:32.409Z,-2.19
2023-03-29T21:46:01.051Z,-2.20
2023-03-29T21:48:29.438Z,-2.16
2023-03-29T21:50:58.233Z,-2.11
2023-03-29T21:53:26.605Z,-2.15
2023-03-29T21:55:54.728Z,-2.11
2023-03-29T21:58:23.264Z,-1.92
2023-03-29T22:00:51.623Z,-1.92
2023-03-29T22:03:20.520Z,-1.97
2023-03-29T22:06:03.003Z,-1.97
2023-03-29T22:08:31.425Z,-2.02
2023-03-29T22:11:08.250Z,-2.04
2023-03-29T22:13:37.451Z,-2.08
2023-03-29T22:16:06.862Z,-2.12
2023-03-29T22:18:43.991Z,-2.12
2023-03-29T22:21:22.633Z,-2.09
2023-03-29T22:23:55.711Z,-2.12
2023-03-29T22:26:27.809Z,-2.11
2023-03-29T22:28:58.410Z,-2.11
2023-03-29T22:31:28.039Z,-2.04
2023-03-29T22:33:58.563Z,-2.04
2023-03-29T22:36:29.764Z,-2.04
2023-03-29T22:38:58.329Z,-2.02
2023-03-29T22:41:27.823Z,-2.02
2023-03-29T22:43:58.341Z,-2.09
2023-03-29T22:46:27.535Z,-2.15
2023-03-29T22:48:55.897Z,-2.18
2023-03-29T22:51:24.176Z,-2.20
2023-03-29T22:53:53.027Z,-2.20
2023-03-29T22:56:22.128Z,-2.13
2023-03-29T22:58:50.717Z,-2.08
2023-03-29T23:01:18.876Z,-2.08
2023-03-29T23:03:46.960Z,-2.12
2023-03-29T23:06:15.502Z,-2.11
2023-03-29T23:08:43.763Z,-2.09
2023-03-29T23:11:12.474Z,-1.99
2023-03-29T23:13:40.828Z,-2.03
2023-03-29T23:16:08.890Z,-2.05
2023-03-29T23:18:37.908Z,-2.04
2023-03-29T23:21:09.215Z,-2.07
2023-03-29T23:23:37.656Z,-2.09
2023-03-29T23:26:11.801Z,-2.11
2023-03-29T23:28:41.261Z,-2.15
2023-03-29T23:31:18.986Z,-2.18
2023-03-29T23:33:47.250Z,-2.23
2023-03-29T23:36:17.662Z,-2.12
2023-03-29T23:38:47.096Z,-2.09
2023-03-29T23:41:17.888Z,-2.14
2023-03-29T23:43:47.473Z,-2.20
2023-03-29T23:46:19.065Z,-2.20
2023-03-29T23:48:51.981Z,-2.26
2023-03-29T23:51:23.378Z,-2.28
2023-03-29T23:53:52.016Z,-2.28
2023-03-29T23:56:21.630Z,-2.28
2023-03-29T23:58:50.292Z,-2.23
